createdAt,value
2018-05-06T00:02:13.145Z,6.90
2018-05-06T00:04:41.291Z,6.80
2018-05-06T00:07:09.466Z,6.80
2018-05-06T00:09:37.612Z,6.70
2018-05-06T00:12:05.777Z,6.70
2018-05-06T00:14:33.936Z,6.60
2018-05-06T00:17:02.108Z,6.60
2018-05-06T00:19:30.252Z,6.60
2018-05-06T00:21:58.430Z,6.60
2018-05-06T00:24:26.572Z,6.50
2018-05-06T00:26:54.740Z,6.50
2018-05-06T00:29:22.879Z,6.50
2018-05-06T00:31:51.056Z,6.40
2018-05-06T00:34:19.198Z,6.40
2018-05-06T00:36:47.373Z,6.40
2018-05-06T00:39:15.514Z,6.40
2018-05-06T00:41:43.684Z,6.40
2018-05-06T00:44:11.824Z,6.40
2018-05-06T00:46:39.996Z,6.40
2018-05-06T00:49:08.144Z,6.40
2018-05-06T00:51:36.309Z,6.50
2018-05-06T00:57:08.052Z,6.50
2018-05-06T00:59:36.195Z,6.50
2018-05-06T01:02:04.368Z,6.50
2018-05-06T01:04:32.508Z,6.50
2018-05-06T01:07:00.687Z,6.50
2018-05-06T01:09:28.836Z,6.50
2018-05-06T01:11:57.007Z,6.40
2018-05-06T01:14:25.147Z,6.40
2018-05-06T01:16:53.335Z,6.40
2018-05-06T01:19:21.500Z,6.40
2018-05-06T01:21:50.418Z,6.30
2018-05-06T01:24:18.588Z,6.20
2018-05-06T01:26:46.729Z,6.30
2018-05-06T01:29:14.907Z,6.20
2018-05-06T01:31:43.053Z,6.20
2018-05-06T01:34:11.219Z,6.20
2018-05-06T01:36:39.365Z,6.10
2018-05-06T01:39:08.308Z,6.10
2018-05-06T01:41:36.451Z,6.10
2018-05-06T01:44:04.625Z,6.00
2018-05-06T01:46:32.793Z,6.00
2018-05-06T01:49:00.936Z,5.90
2018-05-06T01:51:29.114Z,5.90
2018-05-06T01:53:57.256Z,5.80
2018-05-06T01:56:25.428Z,5.80
2018-05-06T01:58:53.571Z,5.80
2018-05-06T02:01:21.749Z,5.70
2018-05-06T02:03:49.896Z,5.70
2018-05-06T02:06:18.073Z,5.70
2018-05-06T02:08:46.980Z,5.70
2018-05-06T02:11:15.156Z,5.70
2018-05-06T02:13:43.296Z,5.70
2018-05-06T02:16:11.476Z,5.60
2018-05-06T02:18:39.636Z,5.60
2018-05-06T02:21:07.820Z,5.50
2018-05-06T02:23:35.964Z,5.50
2018-05-06T02:26:04.133Z,5.50
2018-05-06T02:28:32.275Z,5.50
2018-05-06T02:31:00.454Z,5.50
2018-05-06T02:33:28.595Z,5.50
2018-05-06T02:35:56.768Z,5.50
2018-05-06T02:38:25.680Z,5.40
2018-05-06T02:40:53.852Z,5.40
2018-05-06T02:43:22.772Z,5.40
2018-05-06T02:45:50.948Z,5.40
2018-05-06T02:48:19.091Z,5.40
2018-05-06T02:50:47.265Z,5.40
2018-05-06T02:53:15.408Z,5.30
2018-05-06T02:55:44.359Z,5.30
2018-05-06T02:58:12.504Z,5.30
2018-05-06T03:00:40.676Z,5.30
2018-05-06T03:03:08.824Z,5.20
2018-05-06T03:05:37.000Z,5.20
2018-05-06T03:08:05.148Z,5.20
2018-05-06T03:10:33.320Z,5.10
2018-05-06T03:13:01.468Z,5.10
2018-05-06T03:15:29.621Z,5.10
2018-05-06T03:17:57.796Z,5.10
2018-05-06T03:20:25.936Z,5.10
2018-05-06T03:22:54.104Z,5.10
2018-05-06T03:25:22.255Z,5.10
2018-05-06T03:27:50.428Z,5.10
2018-05-06T03:30:18.567Z,5.10
2018-05-06T03:32:46.740Z,5.00
2018-05-06T03:35:14.888Z,4.90
2018-05-06T03:37:43.085Z,4.80
2018-05-06T03:40:11.227Z,4.80
2018-05-06T03:42:39.400Z,4.80
2018-05-06T03:45:08.557Z,4.80
2018-05-06T03:47:36.728Z,4.80
2018-05-06T03:50:04.876Z,4.80
2018-05-06T03:52:33.040Z,4.80
2018-05-06T03:55:01.188Z,4.80
2018-05-06T03:57:41.117Z,4.80
2018-05-06T04:00:20.980Z,4.80
2018-05-06T04:02:49.152Z,4.80
2018-05-06T04:05:17.300Z,4.80
2018-05-06T04:07:45.477Z,4.80
2018-05-06T04:10:13.619Z,4.80
2018-05-06T04:12:41.789Z,4.90
2018-05-06T04:15:09.935Z,4.90
2018-05-06T04:17:38.108Z,4.90
2018-05-06T04:20:06.249Z,5.00
2018-05-06T04:22:34.422Z,5.00
2018-05-06T04:25:02.563Z,5.10
2018-05-06T04:27:30.739Z,5.10
2018-05-06T04:29:58.887Z,5.10
2018-05-06T04:32:27.068Z,5.20
2018-05-06T04:34:55.211Z,5.30
2018-05-06T04:37:23.388Z,5.40
2018-05-06T04:39:51.537Z,5.50
2018-05-06T04:42:19.705Z,5.50
2018-05-06T04:44:47.859Z,5.60
2018-05-06T04:47:16.033Z,5.60
2018-05-06T04:49:44.185Z,5.70
2018-05-06T04:52:12.360Z,5.80
2018-05-06T04:54:40.512Z,5.90
2018-05-06T04:57:08.675Z,6.00
2018-05-06T04:59:36.824Z,6.10
2018-05-06T05:02:04.991Z,6.30
2018-05-06T05:04:33.131Z,6.50
2018-05-06T05:07:01.306Z,6.70
2018-05-06T05:09:29.500Z,6.90
2018-05-06T05:11:57.649Z,7.00
2018-05-06T05:14:25.788Z,7.10
2018-05-06T05:16:53.968Z,7.20
2018-05-06T05:19:22.908Z,7.50
2018-05-06T05:21:51.084Z,7.50
2018-05-06T05:24:19.232Z,7.80
2018-05-06T05:26:47.400Z,8.00
2018-05-06T05:29:15.585Z,8.30
2018-05-06T05:31:43.730Z,8.50
2018-05-06T05:34:11.872Z,8.80
2018-05-06T05:36:40.042Z,9.10
2018-05-06T05:39:08.185Z,9.30
2018-05-06T05:41:36.356Z,9.50
2018-05-06T05:44:04.499Z,9.60
2018-05-06T05:46:32.671Z,9.80
2018-05-06T05:49:00.824Z,9.90
2018-05-06T05:51:29.008Z,10.10
2018-05-06T05:53:57.157Z,10.20
2018-05-06T05:56:25.333Z,10.40
2018-05-06T05:58:53.483Z,10.60
2018-05-06T06:01:21.692Z,10.70
2018-05-06T06:03:49.834Z,10.90
2018-05-06T06:06:18.004Z,11.00
2018-05-06T06:08:46.157Z,11.10
2018-05-06T06:11:14.333Z,11.30
2018-05-06T06:13:43.246Z,11.50
2018-05-06T06:16:11.440Z,11.40
2018-05-06T06:18:39.589Z,11.60
2018-05-06T06:21:07.763Z,11.80
2018-05-06T06:23:35.921Z,11.90
2018-05-06T06:26:04.861Z,12.30
2018-05-06T06:28:33.040Z,12.30
2018-05-06T06:31:01.233Z,12.40
2018-05-06T06:33:29.384Z,12.60
2018-05-06T06:35:57.555Z,12.80
2018-05-06T06:38:25.781Z,12.90
2018-05-06T06:40:53.920Z,13.00
2018-05-06T06:43:22.072Z,13.10
2018-05-06T06:45:50.247Z,13.30
2018-05-06T06:48:18.400Z,13.40
2018-05-06T06:50:46.575Z,13.50
2018-05-06T06:53:14.727Z,13.70
2018-05-06T06:55:42.928Z,13.90
2018-05-06T06:58:11.095Z,14.00
2018-05-06T07:00:39.272Z,14.10
2018-05-06T07:03:07.437Z,14.30
2018-05-06T07:05:35.648Z,14.40
2018-05-06T07:08:03.800Z,14.50
2018-05-06T07:10:32.007Z,14.70
2018-05-06T07:13:00.197Z,14.90
2018-05-06T07:15:28.480Z,15.10
2018-05-06T07:17:56.695Z,15.50
2018-05-06T07:20:24.977Z,15.80
2018-05-06T07:22:53.213Z,16.20
2018-05-06T07:25:21.456Z,16.50
2018-05-06T07:27:49.637Z,16.80
2018-05-06T07:30:17.822Z,17.30
2018-05-06T07:32:46.811Z,17.60
2018-05-06T07:35:14.975Z,17.60
2018-05-06T07:37:43.158Z,18.10
2018-05-06T07:40:11.318Z,18.50
2018-05-06T07:42:39.501Z,18.80
2018-05-06T07:45:07.706Z,19.20
2018-05-06T07:47:36.019Z,19.40
2018-05-06T07:50:04.213Z,19.50
2018-05-06T07:52:32.546Z,19.70
2018-05-06T07:55:00.764Z,19.60
2018-05-06T07:57:28.964Z,19.60
2018-05-06T07:59:57.880Z,19.90
2018-05-06T08:02:26.075Z,19.90
2018-05-06T08:04:54.251Z,19.80
2018-05-06T08:07:22.512Z,19.80
2018-05-06T08:09:50.710Z,19.90
2018-05-06T08:12:18.881Z,20.00
2018-05-06T08:14:47.032Z,20.10
2018-05-06T08:17:15.208Z,20.20
2018-05-06T08:19:43.386Z,20.30
2018-05-06T08:22:11.568Z,20.30
2018-05-06T08:24:39.748Z,20.40
2018-05-06T08:27:07.928Z,20.30
2018-05-06T08:29:36.088Z,20.20
2018-05-06T08:32:04.268Z,20.20
2018-05-06T08:34:32.420Z,20.20
2018-05-06T08:37:00.597Z,20.30
2018-05-06T08:39:28.758Z,20.30
2018-05-06T08:41:56.936Z,20.30
2018-05-06T08:44:25.091Z,20.20
2018-05-06T08:46:53.268Z,20.20
2018-05-06T08:49:22.183Z,20.70
2018-05-06T08:51:50.388Z,20.60
2018-05-06T08:54:18.540Z,20.70
2018-05-06T08:56:46.720Z,20.60
2018-05-06T08:59:14.870Z,20.40
2018-05-06T09:01:43.060Z,20.30
2018-05-06T09:04:11.214Z,20.20
2018-05-06T09:06:39.395Z,20.10
2018-05-06T09:09:07.545Z,20.00
2018-05-06T09:11:35.736Z,19.80
2018-05-06T09:14:03.905Z,19.60
2018-05-06T09:16:32.843Z,19.70
2018-05-06T09:19:01.012Z,19.60
2018-05-06T09:21:29.203Z,19.50
2018-05-06T09:23:57.374Z,19.40
2018-05-06T09:26:25.551Z,19.40
2018-05-06T09:28:53.725Z,19.50
2018-05-06T09:31:21.924Z,19.50
2018-05-06T09:33:50.095Z,19.50
2018-05-06T09:36:18.250Z,19.50
2018-05-06T09:38:46.447Z,19.60
2018-05-06T09:41:14.601Z,19.60
2018-05-06T09:43:42.807Z,19.70
2018-05-06T09:46:11.736Z,19.60
2018-05-06T09:48:39.939Z,19.60
2018-05-06T09:51:08.100Z,19.60
2018-05-06T09:53:36.291Z,19.60
2018-05-06T09:56:04.690Z,19.60
2018-05-06T09:58:32.892Z,19.60
2018-05-06T10:01:01.047Z,19.70
2018-05-06T10:03:29.231Z,19.70
2018-05-06T10:05:58.139Z,19.60
2018-05-06T10:08:26.347Z,19.60
2018-05-06T10:10:54.520Z,19.60
2018-05-06T10:13:22.695Z,19.60
2018-05-06T10:15:50.930Z,19.60
2018-05-06T10:18:19.050Z,19.60
2018-05-06T10:20:47.203Z,19.60
2018-05-06T10:23:15.404Z,19.60
2018-05-06T10:25:43.562Z,19.70
2018-05-06T10:28:11.791Z,19.70
2018-05-06T10:30:39.931Z,19.70
2018-05-06T10:33:08.116Z,19.70
2018-05-06T10:35:36.266Z,19.60
2018-05-06T10:38:04.455Z,19.50
2018-05-06T10:40:32.629Z,19.50
2018-05-06T10:43:00.816Z,19.60
2018-05-06T10:45:28.973Z,19.70
2018-05-06T10:47:57.165Z,19.70
2018-05-06T10:50:25.425Z,19.90
2018-05-06T10:52:53.558Z,19.90
2018-05-06T10:55:21.707Z,19.90
2018-05-06T10:57:49.899Z,19.90
2018-05-06T11:00:18.080Z,19.90
2018-05-06T11:02:46.318Z,20.00
2018-05-06T11:05:15.246Z,20.10
2018-05-06T11:07:43.451Z,20.10
2018-05-06T11:10:11.728Z,20.00
2018-05-06T11:12:39.818Z,19.90
2018-05-06T11:15:07.997Z,20.00
2018-05-06T11:17:36.940Z,20.20
2018-05-06T11:20:05.097Z,20.20
2018-05-06T11:22:33.281Z,20.20
2018-05-06T11:25:01.453Z,20.30
2018-05-06T11:27:29.642Z,20.30
2018-05-06T11:29:57.801Z,20.20
2018-05-06T11:32:25.985Z,20.20
2018-05-06T11:34:54.135Z,20.20
2018-05-06T11:37:22.553Z,20.20
2018-05-06T11:39:50.943Z,20.30
2018-05-06T11:42:19.893Z,20.30
2018-05-06T11:44:48.069Z,20.30
2018-05-06T11:47:16.224Z,20.20
2018-05-06T11:49:44.396Z,20.30
2018-05-06T11:52:12.562Z,20.20
2018-05-06T11:54:40.735Z,20.30
2018-05-06T11:57:09.648Z,20.30
2018-05-06T11:59:37.831Z,20.30
2018-05-06T12:02:06.036Z,20.30
2018-05-06T12:04:34.215Z,20.30
2018-05-06T12:07:02.372Z,20.30
2018-05-06T12:09:30.571Z,20.30
2018-05-06T12:11:58.729Z,20.40
2018-05-06T12:14:26.920Z,20.50
2018-05-06T12:16:55.094Z,20.40
2018-05-06T12:19:23.279Z,20.40
2018-05-06T12:21:51.460Z,20.40
2018-05-06T12:24:20.412Z,20.50
2018-05-06T12:26:48.559Z,20.50
2018-05-06T12:29:16.751Z,20.40
2018-05-06T12:31:44.904Z,20.50
2018-05-06T12:34:13.081Z,20.50
2018-05-06T12:36:41.250Z,20.50
2018-05-06T12:39:09.430Z,20.50
2018-05-06T12:41:37.620Z,20.50
2018-05-06T12:44:05.798Z,20.50
2018-05-06T12:46:33.947Z,20.50
2018-05-06T12:49:02.154Z,20.50
2018-05-06T12:51:30.308Z,20.50
2018-05-06T12:53:58.484Z,20.60
2018-05-06T12:56:26.632Z,20.70
2018-05-06T12:58:54.811Z,20.70
2018-05-06T13:01:22.965Z,20.70
2018-05-06T13:03:51.908Z,20.70
2018-05-06T13:06:20.835Z,20.80
2018-05-06T13:08:49.008Z,20.70
2018-05-06T13:11:17.159Z,20.70
2018-05-06T13:13:46.300Z,20.70
2018-05-06T13:16:14.461Z,20.80
2018-05-06T13:18:43.470Z,20.80
2018-05-06T13:21:11.588Z,20.80
2018-05-06T13:23:39.759Z,20.80
2018-05-06T13:26:07.938Z,20.80
2018-05-06T13:28:36.120Z,20.90
2018-05-06T13:31:04.278Z,20.80
2018-05-06T13:33:32.459Z,20.90
2018-05-06T13:36:00.719Z,20.80
2018-05-06T13:38:28.904Z,20.90
2018-05-06T13:40:57.104Z,20.90
2018-05-06T13:43:25.287Z,20.90
2018-05-06T13:45:53.446Z,20.90
2018-05-06T13:48:21.600Z,20.90
2018-05-06T13:50:49.779Z,20.90
2018-05-06T13:53:17.935Z,20.90
2018-05-06T13:55:46.112Z,21.00
2018-05-06T13:58:14.265Z,21.00
2018-05-06T14:00:42.440Z,20.90
2018-05-06T14:03:10.599Z,21.00
2018-05-06T14:05:38.780Z,20.90
2018-05-06T14:08:07.942Z,20.90
2018-05-06T14:10:36.124Z,21.00
2018-05-06T14:13:05.065Z,20.90
2018-05-06T14:15:33.257Z,20.90
2018-05-06T14:18:01.413Z,21.00
2018-05-06T14:20:29.632Z,21.00
2018-05-06T14:22:57.783Z,21.00
2018-05-06T14:25:25.988Z,21.00
2018-05-06T14:27:54.913Z,21.00
2018-05-06T14:30:23.113Z,21.00
2018-05-06T14:32:51.284Z,21.00
2018-05-06T14:35:19.463Z,21.10
2018-05-06T14:37:47.623Z,21.10
2018-05-06T14:40:15.794Z,21.10
2018-05-06T14:42:43.944Z,21.10
2018-05-06T14:45:12.134Z,21.10
2018-05-06T14:47:52.124Z,21.10
2018-05-06T14:50:20.305Z,21.10
2018-05-06T14:52:48.451Z,21.20
2018-05-06T14:55:16.634Z,21.20
2018-05-06T14:57:44.787Z,21.30
2018-05-06T15:00:13.005Z,21.20
2018-05-06T15:02:41.152Z,21.30
2018-05-06T15:05:09.323Z,21.30
2018-05-06T15:07:37.482Z,21.30
2018-05-06T15:10:05.679Z,21.30
2018-05-06T15:12:33.837Z,21.30
2018-05-06T15:15:02.013Z,21.40
2018-05-06T15:17:30.168Z,21.40
2018-05-06T15:19:58.321Z,21.30
2018-05-06T15:22:26.496Z,21.30
2018-05-06T15:24:54.647Z,21.30
2018-05-06T15:27:22.843Z,21.40
2018-05-06T15:29:50.995Z,21.40
2018-05-06T15:32:19.944Z,21.30
2018-05-06T15:34:48.100Z,21.30
2018-05-06T15:37:16.279Z,21.30
2018-05-06T15:39:44.432Z,21.30
2018-05-06T15:42:12.611Z,21.30
2018-05-06T15:44:40.764Z,21.30
2018-05-06T15:47:08.943Z,21.30
2018-05-06T15:49:37.101Z,21.40
2018-05-06T15:52:06.039Z,21.30
2018-05-06T15:54:34.218Z,21.30
2018-05-06T15:57:02.397Z,21.30
2018-05-06T15:59:30.551Z,21.30
2018-05-06T16:02:06.548Z,21.20
2018-05-06T16:04:34.704Z,21.30
2018-05-06T16:07:02.875Z,21.20
2018-05-06T16:09:31.031Z,21.10
2018-05-06T16:11:59.212Z,21.10
2018-05-06T16:14:27.371Z,21.10
2018-05-06T16:16:55.547Z,21.10
2018-05-06T16:19:23.707Z,21.10
2018-05-06T16:21:51.901Z,21.10
2018-05-06T16:24:20.060Z,21.10
2018-05-06T16:26:48.213Z,21.00
2018-05-06T16:29:17.167Z,20.90
2018-05-06T16:31:45.327Z,20.90
2018-05-06T16:34:13.507Z,20.80
2018-05-06T16:36:41.662Z,20.70
2018-05-06T16:39:09.841Z,20.70
2018-05-06T16:41:38.013Z,20.60
2018-05-06T16:44:06.180Z,20.60
2018-05-06T16:46:34.347Z,20.50
2018-05-06T16:49:02.524Z,20.40
2018-05-06T16:51:30.676Z,20.40
2018-05-06T16:53:58.883Z,20.30
2018-05-06T16:56:27.036Z,20.20
2018-05-06T16:58:55.212Z,20.10
2018-05-06T17:01:23.388Z,20.00
2018-05-06T17:03:51.560Z,19.90
2018-05-06T17:06:19.727Z,19.80
2018-05-06T17:08:47.916Z,19.80
2018-05-06T17:11:16.088Z,19.70
2018-05-06T17:13:44.287Z,19.60
2018-05-06T17:16:12.448Z,19.50
2018-05-06T17:18:40.605Z,19.50
2018-05-06T17:21:08.800Z,19.40
2018-05-06T17:23:37.019Z,19.30
2018-05-06T17:26:05.172Z,19.30
2018-05-06T17:28:33.319Z,19.20
2018-05-06T17:31:01.500Z,19.10
2018-05-06T17:33:29.664Z,19.10
2018-05-06T17:35:57.875Z,19.00
2018-05-06T17:38:26.040Z,18.90
2018-05-06T17:40:54.252Z,18.90
2018-05-06T17:43:22.412Z,18.80
2018-05-06T17:45:50.612Z,18.70
2018-05-06T17:48:19.612Z,18.70
2018-05-06T17:50:47.804Z,18.60
2018-05-06T17:53:15.964Z,18.50
2018-05-06T17:55:44.166Z,18.40
2018-05-06T17:58:12.331Z,18.40
2018-05-06T18:00:40.508Z,18.30
2018-05-06T18:03:08.687Z,18.20
2018-05-06T18:05:36.869Z,18.20
2018-05-06T18:08:05.059Z,18.10
2018-05-06T18:10:34.082Z,17.90
2018-05-06T18:13:02.247Z,17.90
2018-05-06T18:15:30.429Z,17.80
2018-05-06T18:17:59.364Z,17.70
2018-05-06T18:20:27.546Z,17.70
2018-05-06T18:22:55.713Z,17.60
2018-05-06T18:25:23.907Z,17.50
2018-05-06T18:27:52.072Z,17.40
2018-05-06T18:30:20.223Z,17.30
2018-05-06T18:32:48.419Z,17.20
2018-05-06T18:35:17.347Z,17.00
2018-05-06T18:37:45.599Z,17.00
2018-05-06T18:40:13.759Z,16.90
2018-05-06T18:42:41.964Z,16.70
2018-05-06T18:45:10.137Z,16.60
2018-05-06T18:47:38.319Z,16.50
2018-05-06T18:50:07.249Z,16.30
2018-05-06T18:52:35.424Z,16.20
2018-05-06T18:55:03.582Z,16.10
2018-05-06T18:57:31.795Z,16.00
2018-05-06T18:59:59.956Z,15.80
2018-05-06T19:02:28.137Z,15.70
2018-05-06T19:04:56.296Z,15.50
2018-05-06T19:07:24.492Z,15.40
2018-05-06T19:09:53.513Z,15.20
2018-05-06T19:12:21.722Z,15.20
2018-05-06T19:14:49.892Z,15.10
2018-05-06T19:17:18.116Z,15.00
2018-05-06T19:19:46.328Z,14.90
2018-05-06T19:22:14.491Z,14.70
2018-05-06T19:24:42.672Z,14.50
2018-05-06T19:27:11.597Z,14.30
2018-05-06T19:29:39.855Z,14.20
2018-05-06T19:32:07.960Z,14.10
2018-05-06T19:34:36.193Z,14.00
2018-05-06T19:37:05.191Z,13.90
2018-05-06T19:39:34.149Z,13.80
2018-05-06T19:42:02.305Z,13.70
2018-05-06T19:44:30.508Z,13.70
2018-05-06T19:46:58.725Z,13.60
2018-05-06T19:49:26.906Z,13.60
2018-05-06T19:51:55.059Z,13.50
2018-05-06T19:54:23.262Z,13.40
2018-05-06T19:56:55.171Z,13.30
2018-05-06T19:59:23.385Z,13.30
2018-05-06T20:01:51.560Z,13.20
2018-05-06T20:04:19.760Z,13.10
2018-05-06T20:06:47.933Z,13.00
2018-05-06T20:09:16.128Z,12.90
2018-05-06T20:11:44.285Z,12.80
2018-05-06T20:14:12.482Z,12.70
2018-05-06T20:16:40.662Z,12.70
2018-05-06T20:19:08.831Z,12.70
2018-05-06T20:21:37.059Z,12.60
2018-05-06T20:24:05.224Z,12.50
2018-05-06T20:26:33.420Z,12.50
2018-05-06T20:29:01.573Z,12.40
2018-05-06T20:31:29.747Z,12.30
2018-05-06T20:33:57.905Z,12.20
2018-05-06T20:36:26.843Z,12.10
2018-05-06T20:38:54.996Z,12.10
2018-05-06T20:41:23.212Z,12.00
2018-05-06T20:43:51.429Z,11.90
2018-05-06T20:46:19.605Z,11.90
2018-05-06T20:48:47.751Z,11.80
2018-05-06T20:51:15.943Z,11.70
2018-05-06T20:53:44.112Z,11.70
2018-05-06T20:56:12.304Z,11.70
2018-05-06T20:58:40.461Z,11.70
2018-05-06T21:01:09.429Z,11.50
2018-05-06T21:03:37.594Z,11.50
2018-05-06T21:06:05.788Z,11.50
2018-05-06T21:08:33.940Z,11.50
2018-05-06T21:11:02.125Z,11.50
2018-05-06T21:13:30.296Z,11.40
2018-05-06T21:15:58.478Z,11.50
2018-05-06T21:18:26.636Z,11.50
2018-05-06T21:20:54.820Z,11.50
2018-05-06T21:23:22.968Z,11.50
2018-05-06T21:25:51.115Z,11.50
2018-05-06T21:28:19.291Z,11.50
2018-05-06T21:30:47.478Z,11.40
2018-05-06T21:33:15.639Z,11.40
2018-05-06T21:35:43.790Z,11.30
2018-05-06T21:38:11.983Z,11.30
2018-05-06T21:40:40.143Z,11.30
2018-05-06T21:43:08.321Z,11.20
2018-05-06T21:45:36.471Z,11.20
2018-05-06T21:48:04.644Z,11.10
2018-05-06T21:50:33.556Z,10.90
2018-05-06T21:53:01.754Z,10.90
2018-05-06T21:55:29.903Z,10.80
2018-05-06T21:57:58.076Z,10.80
2018-05-06T22:00:26.237Z,10.80
2018-05-06T22:02:55.177Z,10.70
2018-05-06T22:05:23.324Z,10.70
2018-05-06T22:07:51.493Z,10.60
2018-05-06T22:10:19.650Z,10.50
2018-05-06T22:12:47.830Z,10.50
2018-05-06T22:15:16.746Z,10.30
2018-05-06T22:17:44.920Z,10.30
2018-05-06T22:20:13.071Z,10.30
2018-05-06T22:22:41.248Z,10.30
2018-05-06T22:25:09.399Z,10.20
2018-05-06T22:27:38.352Z,10.20
2018-05-06T22:30:06.543Z,10.20
2018-05-06T22:32:34.695Z,10.10
2018-05-06T22:35:02.880Z,10.10
2018-05-06T22:37:31.044Z,10.10
2018-05-06T22:39:59.223Z,10.00
2018-05-06T22:42:27.381Z,10.00
2018-05-06T22:44:55.556Z,10.00
2018-05-06T22:47:23.697Z,9.90
2018-05-06T22:49:51.896Z,9.90
2018-05-06T22:52:20.052Z,9.90
2018-05-06T22:54:48.231Z,9.90
2018-05-06T22:57:16.367Z,9.80
2018-05-06T22:59:44.557Z,9.80
2018-05-06T23:02:13.472Z,9.80
2018-05-06T23:04:41.693Z,9.70
2018-05-06T23:07:09.846Z,9.70
2018-05-06T23:09:38.030Z,9.70
2018-05-06T23:12:06.191Z,9.70
2018-05-06T23:14:34.360Z,9.70
2018-05-06T23:17:02.516Z,9.60
2018-05-06T23:19:30.684Z,9.60
2018-05-06T23:21:58.827Z,9.50
2018-05-06T23:24:27.004Z,9.40
2018-05-06T23:26:55.159Z,9.40
2018-05-06T23:29:23.375Z,9.40
2018-05-06T23:31:51.509Z,9.30
2018-05-06T23:34:19.752Z,9.30
2018-05-06T23:36:48.624Z,9.30
2018-05-06T23:39:16.778Z,9.30
2018-05-06T23:41:45.711Z,9.30
2018-05-06T23:44:13.851Z,9.30
2018-05-06T23:46:42.024Z,9.30
2018-05-06T23:49:10.206Z,9.30
2018-05-06T23:51:38.370Z,9.20
2018-05-06T23:54:06.514Z,9.10
2018-05-06T23:56:34.688Z,9.00
2018-05-06T23:59:02.836Z,9.00
